Time;durP1;ratioP1;P1;durP2;ratioP2;P2;SDS_P1;SDS_P2;PMS_P1;PMS_P2;Temp;Humidity;BMP_temperature;BMP_pressure;BME280_temperature;BME280_humidity;BME280_pressure;Samples;Min_cycle;Max_cycle;Signal;HPM_P1;HPM_P2
2021/12/12 00:01:13;;;;;;;15.07;7.18;;;;;;;1.16;99.89;101837.50;10496487;28;20510;-72
2021/12/12 00:06:27;;;;;;;19.55;6.82;;;;;;;1.09;99.39;101831.72;10496296;28;20514;-72
2021/12/12 00:11:31;;;;;;;13.65;6.85;;;;;;;0.84;99.30;101802.38;10496318;28;20036;-72
2021/12/12 00:16:33;;;;;;;16.58;7.65;;;;;;;1.03;99.92;101839.00;10496572;28;20488;-72
2021/12/12 00:21:36;;;;;;;17.40;7.38;;;;;;;0.51;98.77;101744.56;10496279;28;20041;-73
2021/12/12 00:26:38;;;;;;;15.02;6.28;;;;;;;-0.59;98.87;101589.16;10495594;28;20040;-73
2021/12/12 00:31:39;;;;;;;14.20;7.28;;;;;;;0.93;99.46;101850.78;10496172;28;20123;-72
2021/12/12 00:36:41;;;;;;;16.98;6.97;;;;;;;0.63;99.42;101819.88;10495169;28;20071;-71
2021/12/12 00:42:06;;;;;;;16.40;6.63;;;;;;;0.14;99.08;101722.66;10495833;28;20045;-73
2021/12/12 00:47:13;;;;;;;14.43;5.85;;;;;;;0.91;98.83;101880.50;10494911;28;20496;-73
2021/12/12 00:52:17;;;;;;;13.75;6.93;;;;;;;0.85;99.26;101866.84;10495697;28;20079;-72
2021/12/12 00:57:20;;;;;;;14.23;6.63;;;;;;;0.64;99.18;101838.09;10494841;28;20132;-73
2021/12/12 01:02:27;;;;;;;14.35;7.00;;;;;;;0.08;99.37;101741.22;10495378;28;20419;-72
2021/12/12 01:07:33;;;;;;;14.50;7.03;;;;;;;0.83;99.81;101872.13;10495427;28;20037;-72
2021/12/12 01:12:35;;;;;;;13.77;7.90;;;;;;;0.82;99.26;101882.66;10495563;28;20412;-72
2021/12/12 01:17:41;;;;;;;16.95;7.55;;;;;;;0.51;99.56;101859.59;10495049;28;20049;-73
2021/12/12 01:22:43;;;;;;;11.48;6.60;;;;;;;-0.82;99.54;101626.66;10502460;28;20055;-72
2021/12/12 01:27:44;;;;;;;13.75;7.30;;;;;;;-0.10;99.23;101743.72;10501952;28;20064;-73
2021/12/12 01:32:47;;;;;;;13.13;7.00;;;;;;;0.58;100.00;101866.28;10503338;28;20032;-72
2021/12/12 01:38:57;;;;;;;11.43;7.00;;;;;;;0.82;99.67;101912.28;10501659;28;20111;-72
2021/12/12 01:43:34;;;;;;;13.82;7.40;;;;;;;0.69;99.99;101903.28;10492196;28;20094;-73
2021/12/12 01:48:43;;;;;;;13.02;6.93;;;;;;;0.59;99.89;101888.91;10501744;28;20098;-73
2021/12/12 01:53:49;;;;;;;15.13;6.82;;;;;;;-0.15;99.75;101768.31;10502623;28;20055;-72
2021/12/12 01:58:58;;;;;;;11.00;6.28;;;;;;;0.70;99.68;101904.13;10500672;28;20044;-72
2021/12/12 02:04:04;;;;;;;10.40;5.78;;;;;;;0.54;100.00;101889.09;10500830;28;20041;-72
2021/12/12 02:09:07;;;;;;;11.57;6.35;;;;;;;0.44;100.00;101888.63;10501588;28;20044;-72
2021/12/12 02:14:11;;;;;;;13.63;6.25;;;;;;;0.32;99.65;101885.69;10500169;28;20059;-72
2021/12/12 02:19:15;;;;;;;17.35;7.40;;;;;;;0.42;100.00;101898.31;10500402;28;20048;-73
2021/12/12 02:35:05;;;;;;;11.40;5.73;;;;;;;0.56;99.71;101921.25;10499541;28;20552;-73
2021/12/12 02:35:24;;;;;;;13.55;6.18;;;;;;;0.45;100.00;101911.25;10499675;28;20045;-73
2021/12/12 02:40:32;;;;;;;17.23;8.07;;;;;;;0.35;100.00;101940.44;10499325;28;20036;-73
2021/12/12 02:45:36;;;;;;;17.13;6.97;;;;;;;0.10;100.00;101898.78;10499525;28;20086;-73
2021/12/12 02:50:41;;;;;;;14.60;6.78;;;;;;;0.36;100.00;101953.47;10499113;28;20067;-72
2021/12/12 02:55:46;;;;;;;17.20;7.13;;;;;;;0.33;100.00;101953.59;10498664;28;20074;-72
2021/12/12 03:00:58;;;;;;;14.88;7.45;;;;;;;-1.18;100.00;101721.09;10499041;28;20036;-72
2021/12/12 03:05:59;;;;;;;15.00;6.65;;;;;;;-0.30;100.00;101887.31;10480439;28;20039;-72
2021/12/12 03:11:00;;;;;;;13.43;6.65;;;;;;;-0.85;100.00;101785.91;10498596;28;20508;-72
2021/12/12 03:16:02;;;;;;;16.77;7.07;;;;;;;-0.87;100.00;101786.88;10498119;28;20139;-72
2021/12/12 03:21:14;;;;;;;23.35;7.50;;;;;;;0.12;100.00;101957.06;10498193;28;20399;-73
2021/12/12 03:26:18;;;;;;;20.10;8.20;;;;;;;-0.01;100.00;101923.56;10498504;28;20044;-72
2021/12/12 03:31:23;;;;;;;22.33;9.10;;;;;;;0.12;100.00;101959.66;10497293;28;20036;-72
2021/12/12 03:36:24;;;;;;;26.00;10.60;;;;;;;0.08;100.00;101955.47;10480177;28;20044;-73
2021/12/12 03:41:29;;;;;;;21.25;9.27;;;;;;;0.11;100.00;101973.66;10458701;28;20033;-73
2021/12/12 03:46:30;;;;;;;16.83;8.88;;;;;;;-0.27;100.00;101914.19;10491653;28;20119;-73
2021/12/12 03:51:33;;;;;;;29.13;10.95;;;;;;;-0.11;100.00;101945.75;10496455;28;20512;-72
2021/12/12 03:56:35;;;;;;;29.80;9.95;;;;;;;-1.06;100.00;101790.19;10496680;28;20052;-72
2021/12/12 04:01:40;;;;;;;23.73;10.02;;;;;;;-0.01;100.00;101975.84;10479356;28;20041;-73
2021/12/12 04:06:41;;;;;;;29.85;10.65;;;;;;;-0.35;100.00;101928.44;10497061;28;20484;-73
2021/12/12 04:11:47;;;;;;;37.00;12.57;;;;;;;0.05;100.00;102005.25;10496741;28;20040;-72
2021/12/12 04:16:54;;;;;;;30.67;12.07;;;;;;;-0.02;100.00;101983.75;10496570;28;20086;-73
2021/12/12 04:21:55;;;;;;;30.77;11.82;;;;;;;-0.05;100.00;101979.47;10496002;28;20032;-72
2021/12/12 04:26:58;;;;;;;25.52;11.82;;;;;;;-0.55;100.00;101887.44;10496118;28;20404;-72
2021/12/12 04:32:07;;;;;;;31.08;13.23;;;;;;;0.08;100.00;102000.75;10496175;28;20036;-74
2021/12/12 04:37:09;;;;;;;32.95;12.30;;;;;;;0.10;100.00;102001.56;10489826;28;20051;-72
2021/12/12 04:42:16;;;;;;;28.70;11.27;;;;;;;-0.70;100.00;101881.88;10481737;28;20122;-72
2021/12/12 04:53:13;;;;;;;37.17;13.30;;;;;;;0.01;100.00;102017.59;10453761;28;20116;-72
2021/12/12 04:58:21;;;;;;;38.00;14.00;;;;;;;0.05;100.00;102032.22;10463476;28;20036;-72
2021/12/12 05:04:00;;;;;;;36.13;13.52;;;;;;;0.06;100.00;102020.00;10499982;28;20497;-73
2021/12/12 05:09:08;;;;;;;31.30;11.85;;;;;;;0.02;100.00;102024.50;10502324;28;20048;-72
2021/12/12 05:14:20;;;;;;;26.23;10.90;;;;;;;-0.05;100.00;102015.22;10503276;28;20460;-73
2021/12/12 05:19:27;;;;;;;30.02;10.65;;;;;;;-0.47;100.00;101942.81;10503146;28;20488;-72
2021/12/12 05:24:31;;;;;;;27.63;11.20;;;;;;;-0.34;100.00;101969.31;10501096;28;20048;-73
2021/12/12 05:29:39;;;;;;;19.38;9.52;;;;;;;-1.42;100.00;101779.38;10502548;28;20123;-72
2021/12/12 05:34:48;;;;;;;28.35;10.18;;;;;;;-0.52;100.00;101942.97;10502471;28;20519;-71
2021/12/12 05:39:50;;;;;;;33.78;10.85;;;;;;;-0.37;100.00;101967.66;10502126;28;20045;-72
2021/12/12 05:44:53;;;;;;;32.90;11.80;;;;;;;-0.15;100.00;102004.28;10501569;28;20519;-73
2021/12/12 05:49:54;;;;;;;33.78;12.38;;;;;;;-0.88;100.00;101869.53;10499667;28;20049;-73
2021/12/12 05:54:55;;;;;;;33.75;12.23;;;;;;;0.17;100.00;102034.38;10478900;28;20128;-79
2021/12/12 05:59:57;;;;;;;30.40;12.68;;;;;;;0.37;100.00;102033.59;10499120;28;20051;-70
2021/12/12 06:04:59;;;;;;;33.65;12.25;;;;;;;0.33;100.00;102012.84;10499242;28;20127;-73
2021/12/12 06:10:04;;;;;;;38.03;13.90;;;;;;;0.48;100.00;102024.47;10494772;28;20135;-72
2021/12/12 06:15:08;;;;;;;30.08;12.95;;;;;;;0.51;100.00;102025.22;10465684;28;20500;-74
2021/12/12 06:20:11;;;;;;;34.67;12.73;;;;;;;-0.65;100.00;101824.28;10473640;28;20044;-76
2021/12/12 06:25:12;;;;;;;38.70;14.90;;;;;;;-0.42;100.00;101856.47;10463814;28;20049;-70
2021/12/12 06:30:16;;;;;;;35.63;13.35;;;;;;;-1.29;100.00;101712.00;10451082;28;20040;-75
2021/12/12 06:35:18;;;;;;;38.53;11.82;;;;;;;0.49;99.95;102000.03;10491505;28;20044;-73
2021/12/12 06:40:21;;;;;;;27.55;10.45;;;;;;;0.11;99.96;101929.22;10461964;28;20041;-75
2021/12/12 06:45:22;;;;;;;31.05;11.38;;;;;;;-0.25;99.27;101880.16;10456255;28;20512;-71
2021/12/12 06:50:26;;;;;;;29.75;11.00;;;;;;;-0.58;99.71;101823.13;10404654;28;1501357;-70
2021/12/12 06:55:29;;;;;;;31.63;12.73;;;;;;;0.16;99.38;101966.50;10458353;28;20496;-72
2021/12/12 07:00:30;;;;;;;35.10;12.90;;;;;;;-0.29;98.89;101876.81;10487354;28;20051;-75
2021/12/12 07:05:31;;;;;;;26.08;13.38;;;;;;;0.47;99.57;102004.47;10495300;28;20423;-71
2021/12/12 07:10:33;;;;;;;34.90;13.20;;;;;;;0.46;99.88;102006.22;10491077;28;20044;-73
2021/12/12 07:15:39;;;;;;;37.45;14.00;;;;;;;0.47;99.88;102007.06;10447834;28;20041;-73
2021/12/12 07:20:41;;;;;;;41.53;16.80;;;;;;;0.41;100.00;101989.88;10495160;28;20033;-73
2021/12/12 07:25:43;;;;;;;45.05;13.85;;;;;;;0.61;99.34;101999.53;10498422;28;20408;-72
2021/12/12 07:30:47;;;;;;;31.88;12.30;;;;;;;-1.20;98.84;101693.38;10480574;28;20517;-73
2021/12/12 07:35:50;;;;;;;30.52;13.65;;;;;;;0.59;98.52;101990.88;10498685;28;20040;-72
2021/12/12 07:40:52;;;;;;;33.00;13.30;;;;;;;0.22;99.12;101922.66;10479233;28;20071;-72
2021/12/12 07:45:53;;;;;;;40.30;15.15;;;;;;;0.67;98.54;101980.97;10486680;28;20052;-73
2021/12/12 07:50:56;;;;;;;34.30;12.70;;;;;;;0.74;98.62;101986.78;10443436;28;20060;-71
2021/12/12 07:55:57;;;;;;;35.75;13.52;;;;;;;0.01;98.82;101863.44;10454338;28;20068;-73
2021/12/12 08:01:00;;;;;;;40.65;14.07;;;;;;;0.61;98.28;101955.06;10465792;28;20069;-72
2021/12/12 08:06:02;;;;;;;41.55;13.95;;;;;;;0.76;97.92;101977.97;10478651;28;20090;-73
2021/12/12 08:11:05;;;;;;;41.42;18.42;;;;;;;0.53;98.60;101920.53;10495839;28;20072;-74
2021/12/12 08:16:08;;;;;;;41.63;19.25;;;;;;;-0.33;97.75;101777.75;10488792;28;20072;-74
2021/12/12 08:21:10;;;;;;;28.45;11.50;;;;;;;0.44;97.61;101912.16;10474930;28;20040;-72
2021/12/12 08:26:12;;;;;;;32.92;13.15;;;;;;;-0.09;97.74;101802.91;10495991;28;20060;-79
2021/12/12 08:31:15;;;;;;;22.38;10.57;;;;;;;0.58;97.98;101913.34;10495641;28;20051;-75
2021/12/12 08:36:16;;;;;;;36.17;13.05;;;;;;;0.74;97.17;101931.84;10496401;28;20519;-75
2021/12/12 08:41:18;;;;;;;44.75;14.75;;;;;;;0.75;97.98;101925.69;10495227;28;20040;-79
2021/12/12 08:46:20;;;;;;;32.13;12.80;;;;;;;0.86;98.23;101921.69;10495442;28;20039;-79
2021/12/12 08:51:30;;;;;;;36.72;14.88;;;;;;;0.87;98.67;101915.56;10477412;28;20242;-75
2021/12/12 08:56:44;;;;;;;40.40;14.80;;;;;;;0.04;98.53;101778.88;10494993;28;20049;-72
2021/12/12 09:01:46;;;;;;;;;;;;;;;1.08;97.50;101905.91;10496091;28;20045;-72
2021/12/12 09:07:05;;;;;;;37.75;14.88;;;;;;;1.04;98.29;101908.72;10495924;28;20365;-73
2021/12/12 09:12:21;;;;;;;33.05;10.63;;;;;;;0.53;97.55;101808.94;10495470;28;20101;-74
2021/12/12 09:17:33;;;;;;;26.88;12.70;;;;;;;0.35;96.82;101801.91;10495189;28;20044;-69
2021/12/12 09:22:44;;;;;;;31.45;10.65;;;;;;;0.52;97.10;101819.47;10495778;28;20445;-76
2021/12/12 09:27:51;;;;;;;31.17;11.80;;;;;;;-0.19;97.04;101717.13;10494223;28;20217;-73
2021/12/12 09:33:20;;;;;;;34.28;12.73;;;;;;;0.26;97.91;101765.72;10469885;28;20044;-77
2021/12/12 09:38:56;;;;;;;27.02;12.35;;;;;;;0.43;97.99;101787.59;10482565;28;20956;-74
2021/12/12 09:44:29;;;;;;;33.55;13.40;;;;;;;1.13;98.14;101892.59;10489933;28;20048;-74
2021/12/12 09:56:00;;;;;;;43.95;15.88;;;;;;;1.19;98.38;101881.84;10459681;28;20092;-74
2021/12/12 10:01:06;;;;;;;38.50;14.63;;;;;;;1.22;98.00;101879.09;10461153;28;20065;-74
2021/12/12 10:06:55;;;;;;;40.88;15.93;;;;;;;1.04;98.25;101869.47;10459217;28;20114;-74
2021/12/12 10:12:16;;;;;;;33.50;14.85;;;;;;;1.14;98.23;101881.25;10408251;28;20049;-74
2021/12/12 10:17:29;;;;;;;32.40;11.55;;;;;;;0.51;98.25;101791.63;10459166;28;20041;-73
2021/12/12 10:22:46;;;;;;;24.42;11.43;;;;;;;1.00;98.08;101873.16;10477486;28;20395;-74
2021/12/12 10:27:53;;;;;;;20.45;7.47;;;;;;;0.95;98.58;101872.50;10464241;28;20099;-76
2021/12/12 10:33:15;;;;;;;26.25;10.75;;;;;;;0.06;97.94;101737.81;10458754;28;20041;-75
2021/12/12 10:39:06;;;;;;;26.80;11.88;;;;;;;0.95;98.29;101886.44;10457970;28;20497;-74
2021/12/12 10:44:30;;;;;;;22.25;9.35;;;;;;;0.64;98.40;101840.72;10452737;28;20060;-76
2021/12/12 10:49:34;;;;;;;25.65;11.90;;;;;;;0.82;97.84;101880.06;10458490;28;20068;-75
2021/12/12 10:54:42;;;;;;;28.97;14.00;;;;;;;0.77;97.49;101872.41;10454826;28;20519;-74
2021/12/12 11:00:00;;;;;;;30.40;13.07;;;;;;;0.66;97.94;101845.88;10457823;28;20372;-72
2021/12/12 11:05:24;;;;;;;32.97;12.38;;;;;;;-0.03;97.86;101728.63;10463063;28;20041;-76
2021/12/12 11:10:29;;;;;;;28.90;12.82;;;;;;;0.64;97.42;101834.63;10480555;28;20052;-79
2021/12/12 11:15:47;;;;;;;31.70;13.80;;;;;;;0.83;97.35;101872.13;10496485;28;20127;-74
2021/12/12 11:20:54;;;;;;;37.78;14.45;;;;;;;0.39;97.10;101820.03;10499311;28;20491;-74
2021/12/12 11:26:20;;;;;;;39.70;18.15;;;;;;;-0.75;96.56;101622.88;10476401;28;20040;-74
2021/12/12 11:31:50;;;;;;;32.03;14.15;;;;;;;1.01;97.28;101909.72;10468145;28;20048;-75
2021/12/12 11:37:05;;;;;;;37.58;15.45;;;;;;;1.00;96.42;101925.50;10479239;28;20044;-75
2021/12/12 11:42:14;;;;;;;;;;;;;;;1.04;96.39;101911.34;10457335;28;20072;-74
2021/12/12 11:47:42;;;;;;;37.00;13.60;;;;;;;0.76;97.01;101891.63;10455843;28;19933;-75
2021/12/12 11:52:59;;;;;;;22.83;10.07;;;;;;;1.06;97.32;101915.59;10455957;28;20036;-75
2021/12/12 11:58:29;;;;;;;34.85;15.40;;;;;;;0.93;96.77;101931.91;10455493;28;20053;-75
2021/12/12 12:03:46;;;;;;;49.40;29.33;;;;;;;0.83;97.62;101919.22;10446944;28;20063;-76
2021/12/12 12:09:11;;;;;;;84.30;46.10;;;;;;;0.87;97.25;101944.34;10486000;28;20492;-77
2021/12/12 12:14:35;;;;;;;48.13;24.77;;;;;;;0.76;97.11;101933.50;10476351;28;20041;-76
2021/12/12 12:20:01;;;;;;;24.20;10.65;;;;;;;0.76;97.03;101941.34;10493070;28;20500;-76
2021/12/12 12:25:17;;;;;;;30.67;13.20;;;;;;;0.71;97.91;101938.06;10493381;28;20106;-76
2021/12/12 12:30:33;;;;;;;29.52;11.30;;;;;;;0.77;96.98;101963.09;10491374;28;20036;-76
2021/12/12 12:36:11;;;;;;;33.42;12.13;;;;;;;0.74;97.50;101951.00;10492685;28;20491;-76
2021/12/12 12:41:33;;;;;;;28.63;11.70;;;;;;;0.66;97.55;101972.28;10491803;28;20515;-76
2021/12/12 12:47:11;;;;;;;34.28;14.82;;;;;;;0.59;97.36;101983.88;10493392;28;20514;-75
2021/12/12 12:52:36;;;;;;;29.80;13.57;;;;;;;0.28;97.27;101937.25;10496532;28;20510;-75
2021/12/12 12:57:40;;;;;;;71.15;35.70;;;;;;;0.57;97.31;101990.09;10496148;28;20048;-75
2021/12/12 13:03:12;;;;;;;87.28;58.70;;;;;;;0.57;97.31;101974.41;10490095;28;20080;-75
2021/12/12 13:08:49;;;;;;;45.03;27.88;;;;;;;0.54;97.15;101983.25;10485937;28;20044;-75
2021/12/12 13:14:07;;;;;;;27.42;12.02;;;;;;;0.49;97.48;101987.81;10492572;28;20036;-76
2021/12/12 13:19:19;;;;;;;27.77;12.32;;;;;;;0.37;97.24;101972.63;10500074;28;20197;-77
2021/12/12 13:24:35;;;;;;;32.50;13.25;;;;;;;0.33;97.13;101965.78;10499027;28;20039;-75
2021/12/12 13:30:04;;;;;;;28.35;12.45;;;;;;;0.50;97.37;101996.50;10496645;28;20044;-75
2021/12/12 13:35:12;;;;;;;29.45;12.93;;;;;;;-0.54;96.83;101832.56;10499158;28;20032;-76
2021/12/12 13:40:54;;;;;;;20.67;10.02;;;;;;;0.45;96.51;102001.94;10478148;28;20127;-75
2021/12/12 13:46:33;;;;;;;26.95;11.82;;;;;;;0.46;96.43;102003.63;10461395;28;20489;-74
2021/12/12 13:51:40;;;;;;;27.17;11.55;;;;;;;0.41;95.68;102006.41;10457371;28;20056;-75
2021/12/12 13:56:59;;;;;;;29.63;11.90;;;;;;;0.35;96.58;101990.97;10459196;28;20044;-75
2021/12/12 14:02:04;;;;;;;27.25;14.90;;;;;;;0.37;96.22;102007.44;10460267;28;20088;-76
2021/12/12 14:07:06;;;;;;;36.97;14.70;;;;;;;0.35;96.75;102016.25;10459080;28;20500;-76
2021/12/12 14:12:11;;;;;;;29.50;12.20;;;;;;;0.24;95.94;101998.41;10458808;28;20056;-75
2021/12/12 14:17:24;;;;;;;30.50;13.95;;;;;;;0.20;96.00;102000.25;10458635;28;20056;-76
2021/12/12 14:22:26;;;;;;;26.27;12.32;;;;;;;0.44;96.42;102048.09;10441102;28;20048;-75
2021/12/12 14:27:28;;;;;;;31.98;14.15;;;;;;;0.42;96.40;102033.41;10456408;28;20054;-75
2021/12/12 14:32:36;;;;;;;30.23;13.02;;;;;;;0.00;95.90;101968.88;10458161;28;20037;-75
2021/12/12 14:37:39;;;;;;;29.23;13.90;;;;;;;0.37;96.12;102053.66;10456643;28;20041;-75
2021/12/12 14:43:10;;;;;;;36.45;13.93;;;;;;;0.43;96.87;102056.88;10458268;28;20052;-76
2021/12/12 14:48:15;;;;;;;32.28;13.55;;;;;;;0.30;96.46;102034.75;10439475;28;20060;-75
2021/12/12 14:53:20;;;;;;;23.40;9.68;;;;;;;-0.56;95.52;101902.25;10457648;28;20551;-76
2021/12/12 14:58:26;;;;;;;43.88;11.50;;;;;;;0.11;95.77;102018.06;10458277;28;20041;-75
2021/12/12 15:03:34;;;;;;;27.20;12.27;;;;;;;0.04;95.90;102006.16;10468736;28;20051;-75
2021/12/12 15:09:01;;;;;;;27.38;10.57;;;;;;;-1.14;95.81;101805.28;10486596;28;20040;-80
2021/12/12 15:14:03;;;;;;;29.40;15.88;;;;;;;0.16;96.24;102031.81;10470368;28;20044;-75
2021/12/12 15:19:31;;;;;;;27.70;11.52;;;;;;;-1.32;95.92;101798.97;10496296;28;20127;-77
2021/12/12 15:24:49;;;;;;;25.50;12.52;;;;;;;-0.11;96.41;101997.16;10475162;28;20062;-75
2021/12/12 15:29:55;;;;;;;34.05;12.98;;;;;;;0.01;96.80;102011.53;10494847;28;20553;-76
2021/12/12 15:35:06;;;;;;;29.90;11.20;;;;;;;0.39;96.61;102044.84;10496287;28;20550;-76
2021/12/12 15:40:30;;;;;;;24.73;11.18;;;;;;;0.04;96.42;101998.34;10493027;28;20547;-78
2021/12/12 15:45:40;;;;;;;25.13;9.88;;;;;;;0.39;96.25;102071.00;10495005;28;20048;-75
2021/12/12 15:50:43;;;;;;;21.40;10.32;;;;;;;-0.51;96.38;101904.66;10493040;28;20516;-76
2021/12/12 15:55:48;;;;;;;26.98;11.35;;;;;;;0.49;97.25;102061.00;10473254;28;20051;-75
2021/12/12 16:01:06;;;;;;;23.95;10.52;;;;;;;0.46;96.16;102055.91;10462810;28;20048;-75
2021/12/12 16:06:07;;;;;;;19.65;10.70;;;;;;;0.48;96.69;102069.78;10491543;28;20044;-76
2021/12/12 16:11:16;;;;;;;26.80;10.35;;;;;;;0.41;96.63;102043.00;10495084;28;20036;-75
2021/12/12 16:16:21;;;;;;;32.88;22.27;;;;;;;0.56;97.27;102053.78;10465635;28;20044;-75
2021/12/12 16:21:24;;;;;;;25.67;11.32;;;;;;;0.59;96.74;102058.88;10496826;28;20045;-76
2021/12/12 16:26:30;;;;;;;20.88;7.50;;;;;;;0.48;96.63;102027.06;10495710;28;20064;-76
2021/12/12 16:31:32;;;;;;;22.70;8.18;;;;;;;0.66;96.17;102070.81;10496676;28;20041;-76
2021/12/12 16:36:44;;;;;;;24.45;10.23;;;;;;;-0.13;97.14;101921.47;10496798;28;20488;-75
2021/12/12 16:41:49;;;;;;;33.10;11.45;;;;;;;-0.44;97.45;101874.81;10496851;28;20487;-75
2021/12/12 16:46:52;;;;;;;23.33;9.40;;;;;;;0.48;97.73;102008.75;10495773;28;20079;-76
2021/12/12 16:52:08;;;;;;;23.83;10.55;;;;;;;-0.07;97.02;101908.16;10502607;28;20067;-74
2021/12/12 16:57:34;;;;;;;22.40;10.15;;;;;;;-0.04;97.51;101907.19;10501914;28;20053;-75
2021/12/12 17:02:38;;;;;;;24.33;8.98;;;;;;;0.69;96.99;102026.22;10502183;28;20040;-74
2021/12/12 17:07:51;;;;;;;28.38;10.55;;;;;;;0.52;97.51;101987.69;10485957;28;20465;-75
2021/12/12 17:12:57;;;;;;;28.75;9.23;;;;;;;0.42;96.98;101976.75;10503623;28;20094;-74
2021/12/12 17:18:15;;;;;;;35.60;11.05;;;;;;;0.51;97.29;101987.72;10504125;28;20041;-74
2021/12/12 17:23:28;;;;;;;31.02;12.15;;;;;;;0.74;97.28;102034.72;10503184;28;20040;-77
2021/12/12 17:28:31;;;;;;;33.10;12.13;;;;;;;0.35;97.59;101951.75;10498423;28;20036;-74
2021/12/12 17:33:41;;;;;;;36.47;12.10;;;;;;;0.76;98.22;102013.72;10502808;28;20036;-75
2021/12/12 17:38:54;;;;;;;37.17;12.23;;;;;;;-0.60;98.30;101774.50;10502494;28;20094;-75
2021/12/12 17:44:22;;;;;;;35.47;12.90;;;;;;;0.87;98.25;102011.53;10501583;28;20105;-75
2021/12/12 17:49:47;;;;;;;43.83;14.05;;;;;;;0.86;97.99;102010.66;10502094;28;20048;-74
2021/12/12 17:55:07;;;;;;;44.13;11.57;;;;;;;0.90;97.92;102004.38;10502930;28;20148;-75
2021/12/12 18:00:16;;;;;;;35.33;13.43;;;;;;;0.89;97.80;102012.28;10501366;28;20044;-76
2021/12/12 18:05:21;;;;;;;27.48;10.13;;;;;;;0.67;97.05;101967.88;10501211;28;20113;-75
2021/12/12 18:10:41;;;;;;;29.45;10.23;;;;;;;0.93;97.22;102010.38;10501389;28;20040;-75
2021/12/12 18:16:08;;;;;;;35.08;11.85;;;;;;;0.71;97.26;101989.53;10498442;28;20048;-75
2021/12/12 18:21:16;;;;;;;30.85;11.43;;;;;;;0.69;97.25;101994.84;10493773;28;20067;-77
2021/12/12 18:26:22;;;;;;;34.53;10.13;;;;;;;0.80;96.86;102003.06;10501469;28;20044;-74
2021/12/12 18:31:28;;;;;;;33.47;9.63;;;;;;;0.67;96.58;101978.34;10480772;28;20040;-75
2021/12/12 18:36:42;;;;;;;27.10;10.20;;;;;;;0.49;96.64;101966.88;10493327;28;20523;-74
2021/12/12 18:41:48;;;;;;;40.40;11.23;;;;;;;-0.50;96.00;101789.75;10495867;28;20041;-74
2021/12/12 18:46:53;;;;;;;33.22;10.52;;;;;;;0.56;96.21;101965.69;10457940;28;20355;-75
2021/12/12 18:52:06;;;;;;;30.83;11.07;;;;;;;0.77;96.06;101999.72;10459273;28;20516;-74
2021/12/12 18:57:12;;;;;;;29.42;11.23;;;;;;;-0.39;96.37;101810.22;10440453;28;20044;-75
2021/12/12 19:02:24;;;;;;;31.65;11.43;;;;;;;-0.23;96.54;101813.06;10457681;28;20148;-74
2021/12/12 19:07:27;;;;;;;32.85;10.13;;;;;;;-0.04;96.55;101837.50;10455169;28;20032;-74
2021/12/12 19:12:36;;;;;;;32.77;10.53;;;;;;;-0.67;96.62;101710.44;10498341;28;20036;-74
2021/12/12 19:17:37;;;;;;;21.23;8.90;;;;;;;0.58;96.94;101914.19;10499022;28;20294;-74
2021/12/12 19:22:40;;;;;;;28.52;11.18;;;;;;;0.44;96.62;101896.47;10499396;28;20099;-75
2021/12/12 19:27:42;;;;;;;30.73;10.00;;;;;;;0.93;96.96;101960.66;10498580;28;20036;-74
2021/12/12 19:32:43;;;;;;;26.35;10.55;;;;;;;-0.02;97.15;101817.38;10499109;28;20554;-74
2021/12/12 19:37:48;;;;;;;31.23;12.20;;;;;;;0.77;98.15;101947.41;10497509;28;20063;-74
2021/12/12 19:42:54;;;;;;;24.65;10.32;;;;;;;0.89;98.12;101971.28;10497445;28;20048;-74
2021/12/12 19:47:58;;;;;;;36.63;10.98;;;;;;;0.66;98.26;101932.19;10497782;28;20143;-74
2021/12/12 19:52:59;;;;;;;;;;;;;;;0.98;98.31;101956.94;10498075;28;20036;-74
2021/12/12 19:58:11;;;;;;;23.00;10.00;;;;;;;0.88;98.50;101972.19;10492993;28;20390;-76
2021/12/12 20:03:19;;;;;;;30.13;10.52;;;;;;;0.90;99.31;101962.53;10478846;28;20136;-74
2021/12/12 20:08:26;;;;;;;39.65;10.43;;;;;;;0.06;99.21;101793.56;10477381;28;20048;-74
2021/12/12 20:13:51;;;;;;;21.58;10.23;;;;;;;0.61;99.64;101890.53;10455698;28;20135;-74
2021/12/12 20:18:53;;;;;;;27.02;9.27;;;;;;;0.96;99.88;101960.53;10437276;28;20511;-74
2021/12/12 20:24:24;;;;;;;22.52;10.02;;;;;;;0.09;99.60;101805.63;10454962;28;20461;-74
2021/12/12 20:29:32;;;;;;;22.05;9.90;;;;;;;0.62;99.98;101886.16;10456011;28;20037;-74
2021/12/12 20:34:34;;;;;;;20.98;9.77;;;;;;;0.68;99.82;101898.97;10454507;28;20120;-74
2021/12/12 20:39:44;;;;;;;25.00;9.95;;;;;;;0.08;100.00;101790.88;10454355;28;20037;-74
2021/12/12 20:44:49;;;;;;;17.25;7.78;;;;;;;0.42;100.00;101846.03;10470181;28;20052;-74
2021/12/12 20:50:09;;;;;;;16.27;7.60;;;;;;;0.94;100.00;101923.16;10496281;28;20135;-75
2021/12/12 20:55:33;;;;;;;30.90;10.32;;;;;;;0.82;100.00;101899.22;10496604;28;20144;-75
2021/12/12 21:00:47;;;;;;;25.02;11.10;;;;;;;0.75;100.00;101895.19;10495902;28;20146;-74
2021/12/12 21:05:54;;;;;;;20.98;9.38;;;;;;;0.90;100.00;101925.06;10496284;28;20044;-74
2021/12/12 21:10:55;;;;;;;26.30;10.82;;;;;;;0.65;100.00;101886.84;10495776;28;20045;-74
2021/12/12 21:16:07;;;;;;;24.33;10.35;;;;;;;0.90;100.00;101927.66;10494768;28;20039;-74
2021/12/12 21:21:12;;;;;;;18.35;10.05;;;;;;;0.90;100.00;101918.03;10495487;28;20036;-74
2021/12/12 21:26:33;;;;;;;25.10;11.70;;;;;;;0.68;100.00;101899.78;10477401;28;20135;-74
2021/12/12 21:31:48;;;;;;;23.23;11.73;;;;;;;0.58;100.00;101888.03;10496173;28;20127;-75
2021/12/12 21:36:54;;;;;;;25.50;11.13;;;;;;;0.47;100.00;101839.75;10498383;28;20040;-74
2021/12/12 21:42:13;;;;;;;23.77;11.77;;;;;;;0.91;100.00;101905.81;10502293;28;20072;-74
2021/12/12 21:47:38;;;;;;;21.35;10.15;;;;;;;0.90;100.00;101910.19;10503527;28;20052;-75
2021/12/12 21:52:42;;;;;;;23.20;10.65;;;;;;;0.91;100.00;101898.81;10502825;28;20040;-74
2021/12/12 21:57:43;;;;;;;24.20;10.33;;;;;;;0.87;100.00;101899.03;10501604;28;20102;-75
2021/12/12 22:02:48;;;;;;;29.00;10.50;;;;;;;0.58;100.00;101835.75;10501448;28;20596;-74
2021/12/12 22:08:09;;;;;;;15.98;7.80;;;;;;;0.83;100.00;101864.28;10501888;28;20488;-74
2021/12/12 22:13:14;;;;;;;26.20;10.70;;;;;;;0.98;100.00;101911.63;10501686;28;20175;-74
2021/12/12 22:18:16;;;;;;;20.50;9.88;;;;;;;0.84;100.00;101873.84;10501638;28;20079;-75
2021/12/12 22:23:21;;;;;;;22.83;9.73;;;;;;;1.01;100.00;101887.94;10501338;28;20037;-75
2021/12/12 22:28:40;;;;;;;22.38;9.93;;;;;;;0.71;100.00;101836.03;10500250;28;20511;-74
2021/12/12 22:33:52;;;;;;;20.92;10.75;;;;;;;0.77;100.00;101851.47;10482818;28;20036;-74
2021/12/12 22:39:00;;;;;;;17.63;10.07;;;;;;;0.95;100.00;101865.50;10500358;28;20068;-74
2021/12/12 22:44:06;;;;;;;17.33;10.38;;;;;;;-0.70;100.00;101600.03;10499891;28;20041;-74
2021/12/12 22:49:17;;;;;;;15.25;7.55;;;;;;;0.95;100.00;101862.03;10499936;28;20095;-74
2021/12/12 22:54:26;;;;;;;21.70;10.48;;;;;;;0.86;100.00;101850.22;10499594;28;20045;-74
2021/12/12 22:59:30;;;;;;;16.50;9.57;;;;;;;1.08;100.00;101889.38;10499766;28;20052;-74
2021/12/12 23:04:39;;;;;;;14.02;7.68;;;;;;;1.11;100.00;101897.94;10499692;28;20040;-74
2021/12/12 23:10:01;;;;;;;14.73;7.82;;;;;;;1.08;100.00;101892.84;10498755;28;20044;-75
2021/12/12 23:15:22;;;;;;;15.93;8.48;;;;;;;0.87;100.00;101865.84;10499811;28;20089;-74
2021/12/12 23:20:39;;;;;;;14.90;8.98;;;;;;;0.76;100.00;101854.16;10498435;28;20115;-74
2021/12/12 23:25:42;;;;;;;17.70;8.60;;;;;;;0.55;100.00;101814.13;10499328;28;20553;-74
2021/12/12 23:30:50;;;;;;;16.30;8.93;;;;;;;0.99;100.00;101884.53;10498875;28;20082;-74
2021/12/12 23:35:55;;;;;;;13.52;8.43;;;;;;;0.96;100.00;101892.50;10498168;28;20564;-74
2021/12/12 23:41:02;;;;;;;11.10;7.45;;;;;;;1.02;100.00;101889.66;10497727;28;20037;-74
2021/12/12 23:46:31;;;;;;;20.27;8.93;;;;;;;0.67;100.00;101839.72;10497328;28;20087;-74